sensor_id;sensor_type;location;lat;lon;timestamp;P1;durP1;ratioP1;P2;durP2;ratioP2
53915;SDS011;39827;49.652;18.770;2022-09-17T00:00:43;5.18;;;3.60;;
53915;SDS011;39827;49.652;18.770;2022-09-17T00:03:10;4.93;;;3.20;;
53915;SDS011;39827;49.652;18.770;2022-09-17T00:05:36;7.35;;;3.45;;
53915;SDS011;39827;49.652;18.770;2022-09-17T00:08:02;4.15;;;2.85;;
53915;SDS011;39827;49.652;18.770;2022-09-17T00:10:30;4.82;;;3.00;;
53915;SDS011;39827;49.652;18.770;2022-09-17T00:12:56;4.25;;;2.95;;
53915;SDS011;39827;49.652;18.770;2022-09-17T00:15:21;5.82;;;3.38;;
53915;SDS011;39827;49.652;18.770;2022-09-17T00:17:47;5.55;;;2.83;;
53915;SDS011;39827;49.652;18.770;2022-09-17T00:20:17;4.40;;;3.05;;
53915;SDS011;39827;49.652;18.770;2022-09-17T00:22:42;10.32;;;2.70;;
53915;SDS011;39827;49.652;18.770;2022-09-17T00:25:08;4.35;;;2.65;;
53915;SDS011;39827;49.652;18.770;2022-09-17T00:27:33;9.25;;;3.30;;
53915;SDS011;39827;49.652;18.770;2022-09-17T00:29:59;5.97;;;3.08;;
53915;SDS011;39827;49.652;18.770;2022-09-17T00:32:24;5.80;;;2.90;;
53915;SDS011;39827;49.652;18.770;2022-09-17T00:34:51;11.50;;;3.40;;
53915;SDS011;39827;49.652;18.770;2022-09-17T00:37:17;9.88;;;3.70;;
53915;SDS011;39827;49.652;18.770;2022-09-17T00:39:43;7.95;;;3.28;;
53915;SDS011;39827;49.652;18.770;2022-09-17T00:42:10;4.80;;;3.17;;
53915;SDS011;39827;49.652;18.770;2022-09-17T00:47:17;7.05;;;3.30;;
53915;SDS011;39827;49.652;18.770;2022-09-17T00:50:03;8.00;;;3.00;;
53915;SDS011;39827;49.652;18.770;2022-09-17T00:52:32;4.25;;;3.30;;
53915;SDS011;39827;49.652;18.770;2022-09-17T00:55:06;6.10;;;3.03;;
53915;SDS011;39827;49.652;18.770;2022-09-17T00:57:37;5.88;;;3.60;;
53915;SDS011;39827;49.652;18.770;2022-09-17T01:00:05;6.30;;;3.17;;
53915;SDS011;39827;49.652;18.770;2022-09-17T01:02:33;7.20;;;3.63;;
53915;SDS011;39827;49.652;18.770;2022-09-17T01:04:59;12.07;;;3.90;;
53915;SDS011;39827;49.652;18.770;2022-09-17T01:12:58;4.32;;;3.30;;
53915;SDS011;39827;49.652;18.770;2022-09-17T01:31:58;5.78;;;2.85;;
53915;SDS011;39827;49.652;18.770;2022-09-17T01:34:31;4.95;;;3.42;;
53915;SDS011;39827;49.652;18.770;2022-09-17T01:39:49;6.50;;;3.38;;
53915;SDS011;39827;49.652;18.770;2022-09-17T01:42:26;5.00;;;3.70;;
53915;SDS011;39827;49.652;18.770;2022-09-17T01:47:56;6.03;;;3.25;;
53915;SDS011;39827;49.652;18.770;2022-09-17T01:50:30;5.00;;;3.53;;
53915;SDS011;39827;49.652;18.770;2022-09-17T01:53:02;4.97;;;3.25;;
53915;SDS011;39827;49.652;18.770;2022-09-17T01:55:30;5.28;;;3.35;;
53915;SDS011;39827;49.652;18.770;2022-09-17T01:58:03;4.13;;;3.17;;
53915;SDS011;39827;49.652;18.770;2022-09-17T02:00:30;4.55;;;3.20;;
53915;SDS011;39827;49.652;18.770;2022-09-17T02:02:59;5.03;;;2.88;;
53915;SDS011;39827;49.652;18.770;2022-09-17T02:08:34;4.43;;;2.97;;
53915;SDS011;39827;49.652;18.770;2022-09-17T02:11:09;5.05;;;3.35;;
53915;SDS011;39827;49.652;18.770;2022-09-17T02:16:07;5.88;;;3.50;;
53915;SDS011;39827;49.652;18.770;2022-09-17T02:18:44;5.38;;;3.35;;
53915;SDS011;39827;49.652;18.770;2022-09-17T02:24:15;4.03;;;3.00;;
53915;SDS011;39827;49.652;18.770;2022-09-17T02:26:55;9.20;;;3.15;;
53915;SDS011;39827;49.652;18.770;2022-09-17T02:29:37;4.90;;;3.42;;
53915;SDS011;39827;49.652;18.770;2022-09-17T02:32:05;6.28;;;3.22;;
53915;SDS011;39827;49.652;18.770;2022-09-17T02:34:31;5.93;;;3.50;;
53915;SDS011;39827;49.652;18.770;2022-09-17T02:36:57;6.72;;;3.15;;
53915;SDS011;39827;49.652;18.770;2022-09-17T02:39:23;5.53;;;3.20;;
53915;SDS011;39827;49.652;18.770;2022-09-17T02:50:23;4.88;;;3.40;;
53915;SDS011;39827;49.652;18.770;2022-09-17T02:53:05;4.57;;;3.40;;
53915;SDS011;39827;49.652;18.770;2022-09-17T02:55:49;5.60;;;3.67;;
53915;SDS011;39827;49.652;18.770;2022-09-17T03:01:18;6.15;;;3.35;;
53915;SDS011;39827;49.652;18.770;2022-09-17T03:03:49;4.43;;;3.20;;
53915;SDS011;39827;49.652;18.770;2022-09-17T03:06:17;6.60;;;2.90;;
53915;SDS011;39827;49.652;18.770;2022-09-17T03:08:43;5.95;;;3.60;;
53915;SDS011;39827;49.652;18.770;2022-09-17T03:11:10;5.25;;;3.22;;
53915;SDS011;39827;49.652;18.770;2022-09-17T03:13:36;6.50;;;3.30;;
53915;SDS011;39827;49.652;18.770;2022-09-17T03:16:02;9.50;;;3.70;;
53915;SDS011;39827;49.652;18.770;2022-09-17T03:18:28;6.45;;;3.17;;
53915;SDS011;39827;49.652;18.770;2022-09-17T03:20:54;6.97;;;3.13;;
53915;SDS011;39827;49.652;18.770;2022-09-17T03:23:19;6.25;;;2.70;;
53915;SDS011;39827;49.652;18.770;2022-09-17T03:25:45;6.40;;;3.28;;
53915;SDS011;39827;49.652;18.770;2022-09-17T03:28:11;7.55;;;2.75;;
53915;SDS011;39827;49.652;18.770;2022-09-17T03:30:36;3.42;;;2.20;;
53915;SDS011;39827;49.652;18.770;2022-09-17T03:33:02;5.25;;;3.38;;
53915;SDS011;39827;49.652;18.770;2022-09-17T03:35:27;5.65;;;3.00;;
53915;SDS011;39827;49.652;18.770;2022-09-17T03:37:52;5.57;;;2.97;;
53915;SDS011;39827;49.652;18.770;2022-09-17T03:40:18;6.70;;;3.05;;
53915;SDS011;39827;49.652;18.770;2022-09-17T03:42:43;7.00;;;3.00;;
53915;SDS011;39827;49.652;18.770;2022-09-17T03:45:09;3.90;;;2.90;;
53915;SDS011;39827;49.652;18.770;2022-09-17T03:47:35;8.85;;;3.45;;
53915;SDS011;39827;49.652;18.770;2022-09-17T03:50:01;5.82;;;3.15;;
53915;SDS011;39827;49.652;18.770;2022-09-17T03:52:27;4.78;;;2.92;;
53915;SDS011;39827;49.652;18.770;2022-09-17T03:54:52;7.97;;;3.00;;
53915;SDS011;39827;49.652;18.770;2022-09-17T03:57:17;4.07;;;2.92;;
53915;SDS011;39827;49.652;18.770;2022-09-17T03:59:43;12.15;;;2.85;;
53915;SDS011;39827;49.652;18.770;2022-09-17T04:02:08;7.15;;;2.90;;
53915;SDS011;39827;49.652;18.770;2022-09-17T04:04:33;3.97;;;2.65;;
53915;SDS011;39827;49.652;18.770;2022-09-17T04:06:59;6.55;;;2.53;;
53915;SDS011;39827;49.652;18.770;2022-09-17T04:09:24;4.20;;;2.60;;
53915;SDS011;39827;49.652;18.770;2022-09-17T04:11:50;5.75;;;2.30;;
53915;SDS011;39827;49.652;18.770;2022-09-17T04:14:15;6.18;;;3.00;;
53915;SDS011;39827;49.652;18.770;2022-09-17T04:16:40;4.47;;;2.25;;
53915;SDS011;39827;49.652;18.770;2022-09-17T04:19:06;5.53;;;2.60;;
53915;SDS011;39827;49.652;18.770;2022-09-17T04:21:31;3.60;;;2.47;;
53915;SDS011;39827;49.652;18.770;2022-09-17T04:23:56;8.48;;;2.83;;
53915;SDS011;39827;49.652;18.770;2022-09-17T04:26:22;4.95;;;2.33;;
53915;SDS011;39827;49.652;18.770;2022-09-17T04:28:47;2.58;;;2.08;;
53915;SDS011;39827;49.652;18.770;2022-09-17T04:31:13;5.50;;;2.53;;
53915;SDS011;39827;49.652;18.770;2022-09-17T04:33:38;3.58;;;2.22;;
53915;SDS011;39827;49.652;18.770;2022-09-17T04:36:03;3.60;;;2.50;;
53915;SDS011;39827;49.652;18.770;2022-09-17T04:38:29;5.07;;;2.17;;
53915;SDS011;39827;49.652;18.770;2022-09-17T04:40:54;8.43;;;2.80;;
53915;SDS011;39827;49.652;18.770;2022-09-17T04:43:21;3.78;;;2.10;;
53915;SDS011;39827;49.652;18.770;2022-09-17T04:45:47;8.30;;;3.42;;
53915;SDS011;39827;49.652;18.770;2022-09-17T04:48:14;3.35;;;2.20;;
53915;SDS011;39827;49.652;18.770;2022-09-17T04:50:40;3.58;;;2.08;;
53915;SDS011;39827;49.652;18.770;2022-09-17T04:53:05;4.95;;;2.40;;
53915;SDS011;39827;49.652;18.770;2022-09-17T04:55:31;3.65;;;2.17;;
53915;SDS011;39827;49.652;18.770;2022-09-17T04:57:56;7.88;;;2.80;;
53915;SDS011;39827;49.652;18.770;2022-09-17T05:00:22;4.95;;;2.63;;
53915;SDS011;39827;49.652;18.770;2022-09-17T05:02:49;4.00;;;2.47;;
53915;SDS011;39827;49.652;18.770;2022-09-17T05:05:16;4.72;;;2.38;;
53915;SDS011;39827;49.652;18.770;2022-09-17T05:07:42;8.02;;;2.38;;
53915;SDS011;39827;49.652;18.770;2022-09-17T05:10:08;7.15;;;2.72;;
53915;SDS011;39827;49.652;18.770;2022-09-17T05:12:35;6.13;;;2.58;;
53915;SDS011;39827;49.652;18.770;2022-09-17T05:15:01;5.95;;;3.20;;
53915;SDS011;39827;49.652;18.770;2022-09-17T05:17:26;3.45;;;2.45;;
53915;SDS011;39827;49.652;18.770;2022-09-17T05:19:52;5.93;;;2.72;;
53915;SDS011;39827;49.652;18.770;2022-09-17T05:22:17;4.95;;;3.03;;
53915;SDS011;39827;49.652;18.770;2022-09-17T05:24:44;6.72;;;2.63;;
53915;SDS011;39827;49.652;18.770;2022-09-17T05:27:09;3.70;;;2.58;;
53915;SDS011;39827;49.652;18.770;2022-09-17T05:29:35;5.80;;;2.03;;
53915;SDS011;39827;49.652;18.770;2022-09-17T05:32:01;6.68;;;2.55;;
53915;SDS011;39827;49.652;18.770;2022-09-17T05:34:27;4.45;;;2.97;;
53915;SDS011;39827;49.652;18.770;2022-09-17T05:36:52;6.10;;;4.25;;
53915;SDS011;39827;49.652;18.770;2022-09-17T05:39:18;6.00;;;4.32;;
53915;SDS011;39827;49.652;18.770;2022-09-17T05:41:45;8.38;;;3.33;;
53915;SDS011;39827;49.652;18.770;2022-09-17T05:44:10;6.78;;;3.40;;
53915;SDS011;39827;49.652;18.770;2022-09-17T05:46:36;9.13;;;3.53;;
53915;SDS011;39827;49.652;18.770;2022-09-17T05:49:01;9.13;;;2.92;;
53915;SDS011;39827;49.652;18.770;2022-09-17T05:51:27;6.25;;;3.38;;
53915;SDS011;39827;49.652;18.770;2022-09-17T05:53:53;6.40;;;3.03;;
53915;SDS011;39827;49.652;18.770;2022-09-17T05:56:19;9.13;;;3.17;;
53915;SDS011;39827;49.652;18.770;2022-09-17T05:58:45;6.55;;;3.42;;
53915;SDS011;39827;49.652;18.770;2022-09-17T06:01:11;8.93;;;2.92;;
53915;SDS011;39827;49.652;18.770;2022-09-17T06:03:40;7.25;;;2.92;;
53915;SDS011;39827;49.652;18.770;2022-09-17T06:06:06;7.45;;;2.63;;
53915;SDS011;39827;49.652;18.770;2022-09-17T06:08:32;5.28;;;2.40;;
53915;SDS011;39827;49.652;18.770;2022-09-17T06:11:07;6.43;;;2.65;;
53915;SDS011;39827;49.652;18.770;2022-09-17T06:13:33;7.40;;;2.92;;
53915;SDS011;39827;49.652;18.770;2022-09-17T06:15:59;5.78;;;2.90;;
53915;SDS011;39827;49.652;18.770;2022-09-17T06:18:26;8.13;;;2.67;;
53915;SDS011;39827;49.652;18.770;2022-09-17T06:20:56;8.60;;;3.70;;
53915;SDS011;39827;49.652;18.770;2022-09-17T06:23:23;6.95;;;3.15;;
53915;SDS011;39827;49.652;18.770;2022-09-17T06:25:56;6.60;;;3.10;;
53915;SDS011;39827;49.652;18.770;2022-09-17T06:28:22;6.43;;;3.45;;
53915;SDS011;39827;49.652;18.770;2022-09-17T06:30:49;4.20;;;2.40;;
53915;SDS011;39827;49.652;18.770;2022-09-17T06:33:18;3.88;;;2.28;;
53915;SDS011;39827;49.652;18.770;2022-09-17T06:35:44;6.68;;;2.60;;
53915;SDS011;39827;49.652;18.770;2022-09-17T06:38:09;7.15;;;2.88;;
53915;SDS011;39827;49.652;18.770;2022-09-17T06:40:35;3.95;;;2.70;;
53915;SDS011;39827;49.652;18.770;2022-09-17T06:43:00;4.22;;;2.65;;
53915;SDS011;39827;49.652;18.770;2022-09-17T06:45:26;4.72;;;2.47;;
53915;SDS011;39827;49.652;18.770;2022-09-17T06:47:52;4.50;;;2.58;;
53915;SDS011;39827;49.652;18.770;2022-09-17T06:50:17;4.82;;;2.60;;
53915;SDS011;39827;49.652;18.770;2022-09-17T06:52:49;3.83;;;2.35;;
53915;SDS011;39827;49.652;18.770;2022-09-17T06:55:15;3.08;;;2.28;;
53915;SDS011;39827;49.652;18.770;2022-09-17T06:57:41;4.88;;;2.65;;
53915;SDS011;39827;49.652;18.770;2022-09-17T07:00:07;8.50;;;2.65;;
53915;SDS011;39827;49.652;18.770;2022-09-17T07:02:33;5.43;;;2.90;;
53915;SDS011;39827;49.652;18.770;2022-09-17T07:04:58;4.50;;;2.67;;
53915;SDS011;39827;49.652;18.770;2022-09-17T07:07:24;4.05;;;2.80;;
53915;SDS011;39827;49.652;18.770;2022-09-17T07:09:49;4.28;;;2.13;;
53915;SDS011;39827;49.652;18.770;2022-09-17T07:12:14;4.30;;;2.70;;
53915;SDS011;39827;49.652;18.770;2022-09-17T07:14:40;6.07;;;3.42;;
53915;SDS011;39827;49.652;18.770;2022-09-17T07:17:05;6.10;;;3.53;;
53915;SDS011;39827;49.652;18.770;2022-09-17T07:19:31;8.05;;;3.97;;
53915;SDS011;39827;49.652;18.770;2022-09-17T07:21:56;4.18;;;3.33;;
53915;SDS011;39827;49.652;18.770;2022-09-17T07:24:22;4.45;;;3.13;;
53915;SDS011;39827;49.652;18.770;2022-09-17T07:26:48;5.82;;;3.55;;
53915;SDS011;39827;49.652;18.770;2022-09-17T07:29:14;4.82;;;3.33;;
53915;SDS011;39827;49.652;18.770;2022-09-17T07:31:39;6.05;;;3.00;;
53915;SDS011;39827;49.652;18.770;2022-09-17T07:34:04;5.53;;;2.90;;
53915;SDS011;39827;49.652;18.770;2022-09-17T07:36:30;6.35;;;3.42;;
53915;SDS011;39827;49.652;18.770;2022-09-17T07:38:55;6.35;;;3.17;;
53915;SDS011;39827;49.652;18.770;2022-09-17T07:41:21;4.15;;;2.45;;
53915;SDS011;39827;49.652;18.770;2022-09-17T07:43:47;6.25;;;3.30;;
53915;SDS011;39827;49.652;18.770;2022-09-17T07:46:13;6.03;;;2.63;;
53915;SDS011;39827;49.652;18.770;2022-09-17T07:48:40;7.78;;;3.60;;
53915;SDS011;39827;49.652;18.770;2022-09-17T07:51:06;4.72;;;2.90;;
53915;SDS011;39827;49.652;18.770;2022-09-17T07:53:31;4.43;;;2.90;;
53915;SDS011;39827;49.652;18.770;2022-09-17T07:55:58;5.00;;;3.25;;
53915;SDS011;39827;49.652;18.770;2022-09-17T07:58:28;6.60;;;3.97;;
53915;SDS011;39827;49.652;18.770;2022-09-17T08:00:58;5.75;;;2.47;;
53915;SDS011;39827;49.652;18.770;2022-09-17T08:03:35;5.15;;;2.97;;
53915;SDS011;39827;49.652;18.770;2022-09-17T08:06:05;5.20;;;2.47;;
53915;SDS011;39827;49.652;18.770;2022-09-17T08:08:35;4.38;;;2.35;;
53915;SDS011;39827;49.652;18.770;2022-09-17T08:11:08;4.80;;;2.25;;
53915;SDS011;39827;49.652;18.770;2022-09-17T08:13:35;3.97;;;2.33;;
53915;SDS011;39827;49.652;18.770;2022-09-17T08:16:02;5.07;;;2.70;;
53915;SDS011;39827;49.652;18.770;2022-09-17T08:18:29;4.68;;;2.25;;
53915;SDS011;39827;49.652;18.770;2022-09-17T08:20:56;4.57;;;2.45;;
53915;SDS011;39827;49.652;18.770;2022-09-17T08:23:23;7.15;;;2.17;;
53915;SDS011;39827;49.652;18.770;2022-09-17T08:25:57;7.30;;;2.50;;
53915;SDS011;39827;49.652;18.770;2022-09-17T08:28:23;3.20;;;2.17;;
53915;SDS011;39827;49.652;18.770;2022-09-17T08:30:52;5.45;;;2.20;;
53915;SDS011;39827;49.652;18.770;2022-09-17T08:33:18;6.13;;;2.05;;
53915;SDS011;39827;49.652;18.770;2022-09-17T08:35:53;3.00;;;1.75;;
53915;SDS011;39827;49.652;18.770;2022-09-17T08:38:23;6.20;;;1.80;;
53915;SDS011;39827;49.652;18.770;2022-09-17T08:43:21;4.47;;;1.75;;
53915;SDS011;39827;49.652;18.770;2022-09-17T08:45:52;3.10;;;1.70;;
53915;SDS011;39827;49.652;18.770;2022-09-17T08:48:19;4.45;;;2.00;;
53915;SDS011;39827;49.652;18.770;2022-09-17T08:50:45;9.43;;;1.77;;
53915;SDS011;39827;49.652;18.770;2022-09-17T08:56:01;3.53;;;1.70;;
53915;SDS011;39827;49.652;18.770;2022-09-17T09:01:22;6.32;;;1.55;;
53915;SDS011;39827;49.652;18.770;2022-09-17T09:06:45;4.03;;;1.50;;
53915;SDS011;39827;49.652;18.770;2022-09-17T09:09:19;9.30;;;1.70;;
53915;SDS011;39827;49.652;18.770;2022-09-17T09:11:48;9.70;;;1.50;;
53915;SDS011;39827;49.652;18.770;2022-09-17T09:14:26;3.58;;;1.27;;
53915;SDS011;39827;49.652;18.770;2022-09-17T09:16:57;2.10;;;1.60;;
53915;SDS011;39827;49.652;18.770;2022-09-17T09:19:28;3.70;;;1.75;;
53915;SDS011;39827;49.652;18.770;2022-09-17T09:25:17;8.43;;;1.70;;
53915;SDS011;39827;49.652;18.770;2022-09-17T09:30:53;5.15;;;1.60;;
53915;SDS011;39827;49.652;18.770;2022-09-17T09:33:29;3.28;;;1.23;;
53915;SDS011;39827;49.652;18.770;2022-09-17T09:35:57;11.25;;;2.33;;
53915;SDS011;39827;49.652;18.770;2022-09-17T09:38:42;3.28;;;1.48;;
53915;SDS011;39827;49.652;18.770;2022-09-17T09:41:12;5.22;;;1.60;;
53915;SDS011;39827;49.652;18.770;2022-09-17T09:57:04;3.40;;;1.60;;
53915;SDS011;39827;49.652;18.770;2022-09-17T09:59:33;3.72;;;1.50;;
53915;SDS011;39827;49.652;18.770;2022-09-17T10:02:02;3.28;;;1.40;;
53915;SDS011;39827;49.652;18.770;2022-09-17T10:04:28;3.70;;;1.40;;
53915;SDS011;39827;49.652;18.770;2022-09-17T10:07:03;3.65;;;1.48;;
53915;SDS011;39827;49.652;18.770;2022-09-17T10:09:31;3.28;;;1.52;;
53915;SDS011;39827;49.652;18.770;2022-09-17T10:14:34;2.55;;;1.60;;
53915;SDS011;39827;49.652;18.770;2022-09-17T10:19:38;4.72;;;1.60;;
53915;SDS011;39827;49.652;18.770;2022-09-17T10:24:54;3.75;;;1.40;;
53915;SDS011;39827;49.652;18.770;2022-09-17T10:27:22;5.30;;;1.60;;
53915;SDS011;39827;49.652;18.770;2022-09-17T10:29:50;4.80;;;1.48;;
53915;SDS011;39827;49.652;18.770;2022-09-17T10:32:21;2.78;;;1.63;;
53915;SDS011;39827;49.652;18.770;2022-09-17T10:34:57;7.30;;;2.08;;
53915;SDS011;39827;49.652;18.770;2022-09-17T10:37:40;6.47;;;1.35;;
53915;SDS011;39827;49.652;18.770;2022-09-17T10:45:41;4.30;;;1.40;;
53915;SDS011;39827;49.652;18.770;2022-09-17T10:48:18;3.08;;;1.30;;
53915;SDS011;39827;49.652;18.770;2022-09-17T10:50:48;2.67;;;1.58;;
53915;SDS011;39827;49.652;18.770;2022-09-17T10:53:16;3.70;;;1.58;;
53915;SDS011;39827;49.652;18.770;2022-09-17T11:01:19;3.22;;;1.27;;
53915;SDS011;39827;49.652;18.770;2022-09-17T11:06:49;2.47;;;1.20;;
53915;SDS011;39827;49.652;18.770;2022-09-17T11:09:49;2.10;;;1.42;;
53915;SDS011;39827;49.652;18.770;2022-09-17T11:17:33;5.07;;;1.42;;
53915;SDS011;39827;49.652;18.770;2022-09-17T11:20:49;2.80;;;1.20;;
53915;SDS011;39827;49.652;18.770;2022-09-17T11:23:25;1.85;;;0.90;;
53915;SDS011;39827;49.652;18.770;2022-09-17T11:28:54;3.72;;;1.27;;
53915;SDS011;39827;49.652;18.770;2022-09-17T11:42:06;7.57;;;1.63;;
53915;SDS011;39827;49.652;18.770;2022-09-17T11:44:37;5.03;;;1.75;;
53915;SDS011;39827;49.652;18.770;2022-09-17T11:47:14;2.42;;;1.60;;
53915;SDS011;39827;49.652;18.770;2022-09-17T11:49:45;10.43;;;1.80;;
53915;SDS011;39827;49.652;18.770;2022-09-17T11:52:40;4.65;;;1.90;;
53915;SDS011;39827;49.652;18.770;2022-09-17T11:57:56;2.85;;;1.35;;
53915;SDS011;39827;49.652;18.770;2022-09-17T12:00:27;3.75;;;1.60;;
53915;SDS011;39827;49.652;18.770;2022-09-17T12:02:59;5.25;;;1.63;;
53915;SDS011;39827;49.652;18.770;2022-09-17T12:05:32;4.00;;;1.70;;
53915;SDS011;39827;49.652;18.770;2022-09-17T12:08:11;4.32;;;1.27;;
53915;SDS011;39827;49.652;18.770;2022-09-17T12:13:49;3.22;;;1.40;;
53915;SDS011;39827;49.652;18.770;2022-09-17T12:21:32;4.38;;;1.92;;
53915;SDS011;39827;49.652;18.770;2022-09-17T12:24:23;2.10;;;1.55;;
53915;SDS011;39827;49.652;18.770;2022-09-17T12:43:38;4.73;;;1.40;;
53915;SDS011;39827;49.652;18.770;2022-09-17T12:46:29;5.20;;;1.15;;
53915;SDS011;39827;49.652;18.770;2022-09-17T12:57:49;4.72;;;1.42;;
53915;SDS011;39827;49.652;18.770;2022-09-17T13:00:24;2.78;;;1.25;;
53915;SDS011;39827;49.652;18.770;2022-09-17T13:02:55;2.90;;;1.38;;
53915;SDS011;39827;49.652;18.770;2022-09-17T13:12:04;4.45;;;1.70;;
53915;SDS011;39827;49.652;18.770;2022-09-17T13:14:20;3.15;;;1.50;;
53915;SDS011;39827;49.652;18.770;2022-09-17T13:16:53;3.70;;;1.52;;
53915;SDS011;39827;49.652;18.770;2022-09-17T13:22:15;3.97;;;1.60;;
53915;SDS011;39827;49.652;18.770;2022-09-17T13:24:43;2.35;;;1.30;;
53915;SDS011;39827;49.652;18.770;2022-09-17T13:27:22;2.42;;;1.20;;
53915;SDS011;39827;49.652;18.770;2022-09-17T13:40:04;4.32;;;1.63;;
53915;SDS011;39827;49.652;18.770;2022-09-17T13:42:43;2.38;;;1.80;;
53915;SDS011;39827;49.652;18.770;2022-09-17T13:45:14;2.80;;;1.38;;
53915;SDS011;39827;49.652;18.770;2022-09-17T13:52:48;2.58;;;1.45;;
53915;SDS011;39827;49.652;18.770;2022-09-17T13:57:59;5.03;;;1.70;;
53915;SDS011;39827;49.652;18.770;2022-09-17T14:13:50;2.88;;;1.60;;
53915;SDS011;39827;49.652;18.770;2022-09-17T14:19:17;6.15;;;1.75;;
53915;SDS011;39827;49.652;18.770;2022-09-17T14:21:57;4.85;;;1.83;;
53915;SDS011;39827;49.652;18.770;2022-09-17T14:27:16;4.10;;;1.55;;
53915;SDS011;39827;49.652;18.770;2022-09-17T14:38:01;3.42;;;1.58;;
53915;SDS011;39827;49.652;18.770;2022-09-17T14:40:33;3.33;;;1.65;;
53915;SDS011;39827;49.652;18.770;2022-09-17T14:42:58;6.30;;;1.48;;
53915;SDS011;39827;49.652;18.770;2022-09-17T14:45:27;4.45;;;1.83;;
53915;SDS011;39827;49.652;18.770;2022-09-17T14:53:44;4.70;;;1.77;;
53915;SDS011;39827;49.652;18.770;2022-09-17T14:56:10;5.53;;;2.05;;
53915;SDS011;39827;49.652;18.770;2022-09-17T14:58:48;6.70;;;1.90;;
53915;SDS011;39827;49.652;18.770;2022-09-17T15:01:23;3.53;;;1.85;;
53915;SDS011;39827;49.652;18.770;2022-09-17T15:06:38;3.47;;;1.70;;
53915;SDS011;39827;49.652;18.770;2022-09-17T15:09:04;1.92;;;1.48;;
53915;SDS011;39827;49.652;18.770;2022-09-17T15:11:30;7.68;;;1.83;;
53915;SDS011;39827;49.652;18.770;2022-09-17T15:14:02;2.78;;;1.45;;
53915;SDS011;39827;49.652;18.770;2022-09-17T15:16:31;4.38;;;1.48;;
53915;SDS011;39827;49.652;18.770;2022-09-17T15:18:59;5.97;;;1.50;;
53915;SDS011;39827;49.652;18.770;2022-09-17T15:21:38;3.35;;;1.40;;
53915;SDS011;39827;49.652;18.770;2022-09-17T15:26:51;4.30;;;1.42;;
53915;SDS011;39827;49.652;18.770;2022-09-17T15:29:22;3.50;;;1.60;;
53915;SDS011;39827;49.652;18.770;2022-09-17T15:31:52;4.22;;;1.60;;
53915;SDS011;39827;49.652;18.770;2022-09-17T15:34:18;2.00;;;1.45;;
53915;SDS011;39827;49.652;18.770;2022-09-17T15:39:40;2.92;;;1.92;;
53915;SDS011;39827;49.652;18.770;2022-09-17T15:42:15;3.78;;;1.90;;
53915;SDS011;39827;49.652;18.770;2022-09-17T15:44:52;3.83;;;1.90;;
53915;SDS011;39827;49.652;18.770;2022-09-17T15:47:50;4.93;;;2.10;;
53915;SDS011;39827;49.652;18.770;2022-09-17T15:50:18;3.30;;;1.70;;
53915;SDS011;39827;49.652;18.770;2022-09-17T15:52:44;4.97;;;1.75;;
53915;SDS011;39827;49.652;18.770;2022-09-17T15:55:29;4.50;;;1.60;;
53915;SDS011;39827;49.652;18.770;2022-09-17T15:57:56;2.95;;;1.50;;
53915;SDS011;39827;49.652;18.770;2022-09-17T16:00:22;4.78;;;1.58;;
53915;SDS011;39827;49.652;18.770;2022-09-17T16:02:48;6.47;;;1.88;;
53915;SDS011;39827;49.652;18.770;2022-09-17T16:07:45;3.70;;;1.83;;
53915;SDS011;39827;49.652;18.770;2022-09-17T16:10:11;5.30;;;2.08;;
53915;SDS011;39827;49.652;18.770;2022-09-17T16:12:37;3.90;;;2.05;;
53915;SDS011;39827;49.652;18.770;2022-09-17T16:15:03;3.08;;;1.75;;
53915;SDS011;39827;49.652;18.770;2022-09-17T16:22:41;5.72;;;2.25;;
53915;SDS011;39827;49.652;18.770;2022-09-17T16:25:08;3.20;;;2.13;;
53915;SDS011;39827;49.652;18.770;2022-09-17T16:27:39;4.03;;;2.28;;
53915;SDS011;39827;49.652;18.770;2022-09-17T16:30:11;4.32;;;2.38;;
53915;SDS011;39827;49.652;18.770;2022-09-17T16:32:41;4.22;;;2.40;;
53915;SDS011;39827;49.652;18.770;2022-09-17T16:35:10;4.93;;;2.90;;
53915;SDS011;39827;49.652;18.770;2022-09-17T16:37:36;8.25;;;3.60;;
53915;SDS011;39827;49.652;18.770;2022-09-17T16:40:02;7.22;;;4.03;;
53915;SDS011;39827;49.652;18.770;2022-09-17T16:42:30;8.88;;;4.78;;
53915;SDS011;39827;49.652;18.770;2022-09-17T16:44:56;10.07;;;5.57;;
53915;SDS011;39827;49.652;18.770;2022-09-17T16:47:24;7.53;;;3.65;;
53915;SDS011;39827;49.652;18.770;2022-09-17T16:49:49;8.07;;;3.75;;
53915;SDS011;39827;49.652;18.770;2022-09-17T16:52:14;6.93;;;3.63;;
53915;SDS011;39827;49.652;18.770;2022-09-17T16:54:40;8.90;;;3.45;;
53915;SDS011;39827;49.652;18.770;2022-09-17T16:57:05;10.70;;;4.28;;
53915;SDS011;39827;49.652;18.770;2022-09-17T16:59:30;12.13;;;4.70;;
53915;SDS011;39827;49.652;18.770;2022-09-17T17:01:56;6.45;;;4.22;;
53915;SDS011;39827;49.652;18.770;2022-09-17T17:04:21;6.90;;;3.90;;
53915;SDS011;39827;49.652;18.770;2022-09-17T17:06:46;13.57;;;5.97;;
53915;SDS011;39827;49.652;18.770;2022-09-17T17:09:12;8.52;;;3.38;;
53915;SDS011;39827;49.652;18.770;2022-09-17T17:11:38;7.30;;;4.53;;
53915;SDS011;39827;49.652;18.770;2022-09-17T17:14:04;8.57;;;5.18;;
53915;SDS011;39827;49.652;18.770;2022-09-17T17:16:29;10.18;;;5.80;;
53915;SDS011;39827;49.652;18.770;2022-09-17T17:18:55;10.30;;;6.53;;
53915;SDS011;39827;49.652;18.770;2022-09-17T17:21:21;22.77;;;9.85;;
53915;SDS011;39827;49.652;18.770;2022-09-17T17:23:46;22.92;;;12.57;;
53915;SDS011;39827;49.652;18.770;2022-09-17T17:26:13;57.28;;;33.00;;
53915;SDS011;39827;49.652;18.770;2022-09-17T17:28:39;21.38;;;13.35;;
53915;SDS011;39827;49.652;18.770;2022-09-17T17:31:05;24.70;;;14.30;;
53915;SDS011;39827;49.652;18.770;2022-09-17T17:33:30;11.75;;;4.53;;
53915;SDS011;39827;49.652;18.770;2022-09-17T17:35:59;10.25;;;5.32;;
53915;SDS011;39827;49.652;18.770;2022-09-17T17:38:29;14.98;;;7.55;;
53915;SDS011;39827;49.652;18.770;2022-09-17T17:41:08;10.65;;;6.80;;
53915;SDS011;39827;49.652;18.770;2022-09-17T17:43:33;10.70;;;6.00;;
53915;SDS011;39827;49.652;18.770;2022-09-17T17:45:59;15.15;;;7.50;;
53915;SDS011;39827;49.652;18.770;2022-09-17T17:48:25;9.30;;;5.65;;
53915;SDS011;39827;49.652;18.770;2022-09-17T17:50:51;14.63;;;6.80;;
53915;SDS011;39827;49.652;18.770;2022-09-17T17:53:16;18.30;;;6.93;;
53915;SDS011;39827;49.652;18.770;2022-09-17T17:55:42;12.20;;;6.30;;
53915;SDS011;39827;49.652;18.770;2022-09-17T17:58:07;9.95;;;6.07;;
53915;SDS011;39827;49.652;18.770;2022-09-17T18:00:32;13.82;;;6.45;;
53915;SDS011;39827;49.652;18.770;2022-09-17T18:02:58;12.23;;;7.13;;
53915;SDS011;39827;49.652;18.770;2022-09-17T18:05:23;8.85;;;4.40;;
53915;SDS011;39827;49.652;18.770;2022-09-17T18:07:48;5.53;;;3.33;;
53915;SDS011;39827;49.652;18.770;2022-09-17T18:10:14;5.78;;;3.90;;
53915;SDS011;39827;49.652;18.770;2022-09-17T18:12:40;8.02;;;4.40;;
53915;SDS011;39827;49.652;18.770;2022-09-17T18:15:06;10.88;;;6.50;;
53915;SDS011;39827;49.652;18.770;2022-09-17T18:17:32;8.90;;;6.15;;
53915;SDS011;39827;49.652;18.770;2022-09-17T18:19:59;13.63;;;6.35;;
53915;SDS011;39827;49.652;18.770;2022-09-17T18:22:25;14.38;;;7.45;;
53915;SDS011;39827;49.652;18.770;2022-09-17T18:24:50;36.08;;;19.40;;
53915;SDS011;39827;49.652;18.770;2022-09-17T18:27:15;14.68;;;7.95;;
53915;SDS011;39827;49.652;18.770;2022-09-17T18:29:41;13.57;;;7.50;;
53915;SDS011;39827;49.652;18.770;2022-09-17T18:32:06;15.85;;;8.02;;
53915;SDS011;39827;49.652;18.770;2022-09-17T18:34:31;28.02;;;11.57;;
53915;SDS011;39827;49.652;18.770;2022-09-17T18:36:57;23.48;;;10.77;;